createdAt,value
2023-01-13T00:03:06.729Z,10.50
2023-01-13T00:08:04.899Z,10.50
2023-01-13T00:10:35.210Z,10.50
2023-01-13T00:13:05.880Z,10.50
2023-01-13T00:15:34.621Z,10.50
2023-01-13T00:20:31.395Z,10.50
2023-01-13T00:23:00.135Z,10.50
2023-01-13T00:25:28.441Z,10.50
2023-01-13T00:27:58.021Z,10.50
2023-01-13T00:30:26.305Z,10.50
2023-01-13T00:37:52.127Z,10.50
2023-01-13T00:40:20.535Z,10.60
2023-01-13T00:43:06.245Z,10.60
2023-01-13T00:45:35.870Z,10.50
2023-01-13T00:48:04.702Z,10.60
2023-01-13T00:50:33.470Z,10.50
2023-01-13T00:53:02.092Z,10.50
2023-01-13T00:55:32.849Z,10.50
2023-01-13T00:58:03.566Z,10.50
2023-01-13T01:00:32.336Z,10.50
2023-01-13T01:03:02.014Z,10.50
2023-01-13T01:05:30.251Z,10.50
2023-01-13T01:10:27.141Z,10.50
2023-01-13T01:20:22.544Z,10.60
2023-01-13T01:22:50.827Z,10.60
2023-01-13T01:27:47.648Z,10.60
2023-01-13T01:30:16.752Z,10.60
2023-01-13T01:32:44.980Z,10.60
2023-01-13T01:35:13.210Z,10.60
2023-01-13T01:37:42.784Z,10.60
2023-01-13T01:40:12.902Z,10.60
2023-01-13T01:42:58.979Z,10.60
2023-01-13T01:45:30.511Z,10.50
2023-01-13T01:48:02.221Z,10.50
2023-01-13T01:50:32.326Z,10.40
2023-01-13T01:53:08.225Z,10.50
2023-01-13T01:55:37.982Z,10.50
2023-01-13T01:58:12.591Z,10.50
2023-01-13T02:03:11.979Z,10.40
2023-01-13T02:05:41.188Z,10.30
2023-01-13T02:08:14.099Z,10.40
2023-01-13T02:10:46.420Z,10.30
2023-01-13T02:13:14.516Z,10.30
2023-01-13T02:15:52.973Z,10.30
2023-01-13T02:18:39.256Z,10.30
2023-01-13T02:22:01.614Z,10.30
2023-01-13T02:25:04.863Z,10.30
2023-01-13T02:28:07.708Z,10.30
2023-01-13T02:31:03.295Z,10.30
2023-01-13T02:34:02.714Z,10.30
2023-01-13T02:36:40.327Z,10.30
2023-01-13T02:39:17.530Z,10.30
2023-01-13T02:42:18.064Z,10.30
2023-01-13T02:45:09.108Z,10.40
2023-01-13T02:47:43.979Z,10.30
2023-01-13T02:50:13.935Z,10.30
2023-01-13T02:52:46.252Z,10.30
2023-01-13T02:55:23.037Z,10.40
2023-01-13T02:57:53.664Z,10.40
2023-01-13T03:00:23.996Z,10.40
2023-01-13T03:02:53.997Z,10.40
2023-01-13T03:08:15.627Z,10.40
2023-01-13T03:11:05.703Z,10.40
2023-01-13T03:14:02.986Z,10.40
2023-01-13T03:16:39.384Z,10.40
2023-01-13T03:19:23.691Z,10.40
2023-01-13T03:21:58.315Z,10.50
2023-01-13T03:24:35.339Z,10.40
2023-01-13T03:27:09.290Z,10.50
2023-01-13T03:29:42.136Z,10.50
2023-01-13T03:32:16.001Z,10.50
2023-01-13T03:34:51.087Z,10.50
2023-01-13T03:37:26.250Z,10.50
2023-01-13T03:40:01.426Z,10.50
2023-01-13T03:42:34.999Z,10.50
2023-01-13T03:45:10.520Z,10.50
2023-01-13T03:47:48.375Z,10.60
2023-01-13T03:50:23.642Z,10.60
2023-01-13T03:52:56.757Z,10.70
2023-01-13T03:55:31.288Z,10.70
2023-01-13T03:58:06.732Z,10.70
2023-01-13T04:00:43.332Z,10.70
2023-01-13T04:03:15.505Z,10.70
2023-01-13T04:05:51.119Z,10.80
2023-01-13T04:08:23.512Z,10.80
2023-01-13T04:10:59.233Z,10.70
2023-01-13T04:13:32.258Z,10.70
2023-01-13T04:16:01.615Z,10.70
2023-01-13T04:18:31.840Z,10.70
2023-01-13T04:21:02.824Z,10.70
2023-01-13T04:23:31.124Z,10.70
2023-01-13T04:25:59.609Z,10.70
2023-01-13T04:28:28.069Z,10.70
2023-01-13T04:35:53.683Z,10.70
2023-01-13T04:38:23.798Z,10.70
2023-01-13T04:40:52.023Z,10.70
2023-01-13T04:50:45.801Z,10.80
2023-01-13T04:53:14.094Z,10.80
2023-01-13T04:55:44.392Z,10.80
2023-01-13T04:58:12.881Z,10.80
2023-01-13T05:03:09.712Z,10.80
2023-01-13T05:10:37.787Z,10.80
2023-01-13T05:13:24.904Z,10.80
2023-01-13T05:16:18.840Z,10.80
2023-01-13T05:18:47.140Z,10.80
2023-01-13T05:21:29.259Z,10.90
2023-01-13T05:24:15.209Z,10.90
2023-01-13T05:26:43.455Z,10.90
2023-01-13T05:29:13.008Z,10.90
2023-01-13T05:34:09.760Z,10.80
2023-01-13T05:36:38.047Z,10.90
2023-01-13T05:39:06.310Z,10.80
2023-01-13T05:44:21.814Z,10.80
2023-01-13T05:46:50.088Z,10.90
2023-01-13T05:49:18.495Z,10.90
2023-01-13T05:51:46.976Z,10.90
2023-01-13T05:54:15.427Z,10.90
2023-01-13T05:56:43.655Z,10.90
2023-01-13T05:59:12.137Z,10.90
2023-01-13T06:01:41.664Z,10.90
2023-01-13T06:04:10.052Z,10.90
2023-01-13T06:09:06.899Z,11.00
2023-01-13T06:11:35.111Z,11.00
2023-01-13T06:14:03.334Z,10.90
2023-01-13T06:16:31.579Z,10.80
2023-01-13T06:19:01.234Z,10.60
2023-01-13T06:21:30.534Z,10.40
2023-01-13T06:24:00.765Z,10.20
2023-01-13T06:26:31.367Z,10.00
2023-01-13T06:31:28.596Z,9.60
2023-01-13T06:34:03.536Z,9.40
2023-01-13T06:36:38.367Z,9.20
2023-01-13T06:39:07.284Z,9.10
2023-01-13T06:41:53.179Z,8.90
2023-01-13T06:44:24.513Z,8.80
2023-01-13T06:46:53.488Z,8.70
2023-01-13T06:49:23.230Z,8.70
2023-01-13T06:51:51.681Z,8.60
2023-01-13T06:54:19.893Z,8.60
2023-01-13T06:56:48.248Z,8.50
2023-01-13T07:01:45.951Z,8.40
2023-01-13T07:04:14.656Z,8.40
2023-01-13T07:06:44.359Z,8.40
2023-01-13T07:09:12.796Z,8.30
2023-01-13T07:16:55.717Z,8.30
2023-01-13T07:21:53.964Z,8.40
2023-01-13T07:24:23.466Z,8.40
2023-01-13T07:26:52.564Z,8.40
2023-01-13T07:29:20.901Z,8.40
2023-01-13T07:31:50.290Z,8.40
2023-01-13T07:34:18.718Z,8.40
2023-01-13T07:39:16.847Z,8.40
2023-01-13T07:44:31.366Z,8.40
2023-01-13T07:46:59.713Z,8.40
2023-01-13T07:49:28.003Z,8.40
2023-01-13T07:51:56.234Z,8.40
2023-01-13T07:54:39.619Z,8.40
2023-01-13T07:57:10.206Z,8.40
2023-01-13T08:04:35.819Z,8.50
2023-01-13T08:07:04.958Z,8.50
2023-01-13T08:09:34.528Z,8.50
2023-01-13T08:12:20.319Z,8.50
2023-01-13T08:14:50.139Z,8.50
2023-01-13T08:17:20.458Z,8.50
2023-01-13T08:19:49.019Z,8.40
2023-01-13T08:22:17.651Z,8.50
2023-01-13T08:24:47.239Z,8.50
2023-01-13T08:27:15.503Z,8.60
2023-01-13T08:29:44.106Z,8.60
2023-01-13T08:34:40.875Z,8.60
2023-01-13T08:37:09.177Z,8.60
2023-01-13T08:42:07.520Z,8.70
2023-01-13T08:44:35.816Z,8.70
2023-01-13T08:47:05.757Z,8.80
2023-01-13T08:49:34.032Z,8.80
2023-01-13T08:52:02.216Z,8.90
2023-01-13T08:54:30.460Z,9.00
2023-01-13T08:56:59.617Z,9.00
2023-01-13T08:59:30.338Z,9.20
2023-01-13T09:01:58.805Z,9.20
2023-01-13T09:04:29.708Z,9.30
2023-01-13T09:06:58.988Z,9.40
2023-01-13T09:09:28.369Z,9.60
2023-01-13T09:12:14.133Z,9.80
2023-01-13T09:14:43.821Z,10.20
2023-01-13T09:19:40.599Z,10.60
2023-01-13T09:22:10.879Z,10.70
2023-01-13T09:24:39.114Z,10.80
2023-01-13T09:27:07.314Z,11.00
2023-01-13T09:29:35.534Z,11.20
2023-01-13T09:32:05.946Z,11.30
2023-01-13T09:34:52.072Z,11.40
2023-01-13T09:37:20.387Z,11.50
2023-01-13T09:42:44.793Z,11.70
2023-01-13T09:45:17.470Z,11.70
2023-01-13T09:47:56.620Z,11.70
2023-01-13T09:50:40.903Z,11.60
2023-01-13T09:53:16.108Z,7.60
2023-01-13T09:55:45.542Z,11.10
2023-01-13T09:58:17.282Z,11.10
2023-01-13T10:00:57.946Z,11.30
2023-01-13T10:03:30.507Z,11.30
2023-01-13T10:06:06.821Z,11.20
2023-01-13T10:08:38.798Z,11.00
2023-01-13T10:11:28.328Z,10.70
2023-01-13T10:14:01.238Z,10.60
2023-01-13T10:16:42.228Z,10.40
2023-01-13T10:19:19.886Z,10.30
2023-01-13T10:22:32.034Z,10.20
2023-01-13T10:25:23.221Z,10.20
2023-01-13T10:27:54.679Z,10.10
2023-01-13T10:30:30.998Z,10.10
2023-01-13T10:33:01.899Z,10.10
2023-01-13T10:35:53.495Z,10.20
2023-01-13T10:38:25.377Z,10.40
2023-01-13T10:40:57.253Z,10.50
2023-01-13T10:43:26.888Z,10.70
2023-01-13T10:46:05.551Z,10.70
2023-01-13T10:48:38.395Z,10.80
2023-01-13T10:51:24.268Z,10.80
2023-01-13T10:54:00.150Z,10.80
2023-01-13T10:56:32.324Z,11.00
2023-01-13T10:59:23.233Z,11.30
2023-01-13T11:02:07.888Z,11.60
2023-01-13T11:04:44.963Z,11.80
2023-01-13T11:07:29.283Z,12.10
2023-01-13T11:10:20.312Z,12.40
2023-01-13T11:12:58.686Z,12.70
2023-01-13T11:15:41.012Z,12.90
2023-01-13T11:18:20.595Z,13.00
2023-01-13T11:20:52.591Z,13.10
2023-01-13T11:23:27.805Z,12.90
2023-01-13T11:26:05.182Z,12.90
2023-01-13T11:28:45.534Z,13.10
2023-01-13T11:31:24.543Z,13.30
2023-01-13T11:34:00.328Z,13.30
2023-01-13T11:36:35.412Z,13.20
2023-01-13T11:39:18.530Z,13.00
2023-01-13T11:42:13.730Z,12.70
2023-01-13T11:44:50.647Z,12.30
2023-01-13T11:47:24.633Z,11.80
2023-01-13T11:49:53.118Z,11.60
2023-01-13T11:52:29.042Z,11.40
2023-01-13T11:55:25.170Z,11.20
2023-01-13T11:58:21.259Z,11.00
2023-01-13T12:01:05.267Z,11.00
2023-01-13T12:03:40.292Z,11.00
2023-01-13T12:06:30.714Z,11.30
2023-01-13T12:09:16.111Z,11.60
2023-01-13T12:12:20.233Z,11.60
2023-01-13T12:15:24.199Z,11.50
2023-01-13T12:18:09.747Z,11.20
2023-01-13T12:20:50.595Z,10.90
2023-01-13T12:23:31.709Z,10.80
2023-01-13T12:26:06.284Z,10.70
2023-01-13T12:28:46.340Z,10.50
2023-01-13T12:31:18.691Z,10.50
2023-01-13T12:34:02.563Z,10.70
2023-01-13T12:36:42.803Z,10.70
2023-01-13T12:39:24.916Z,10.50
2023-01-13T12:42:16.379Z,10.40
2023-01-13T12:45:21.821Z,10.60
2023-01-13T12:47:50.566Z,11.00
2023-01-13T12:51:00.542Z,11.40
2023-01-13T12:53:38.780Z,11.90
2023-01-13T12:56:40.683Z,12.20
2023-01-13T12:59:48.954Z,12.40
2023-01-13T13:02:37.636Z,12.50
2023-01-13T13:05:41.858Z,12.60
2023-01-13T13:08:26.798Z,12.90
2023-01-13T13:11:39.117Z,13.10
2023-01-13T13:14:10.571Z,13.30
2023-01-13T13:16:51.989Z,13.40
2023-01-13T13:19:50.674Z,13.60
2023-01-13T13:22:38.418Z,13.40
2023-01-13T13:25:27.243Z,13.20
2023-01-13T13:28:19.234Z,12.90
2023-01-13T13:31:06.559Z,12.50
2023-01-13T13:34:02.953Z,12.00
2023-01-13T13:36:54.143Z,11.60
2023-01-13T13:39:44.067Z,11.40
2023-01-13T13:42:34.403Z,11.30
2023-01-13T13:45:21.862Z,11.10
2023-01-13T13:50:22.152Z,11.60
2023-01-13T13:52:58.930Z,10.90
2023-01-13T13:55:29.719Z,11.00
2023-01-13T13:58:01.516Z,11.10
2023-01-13T14:00:32.880Z,11.10
2023-01-13T14:03:03.974Z,11.00
2023-01-13T14:05:34.264Z,11.10
2023-01-13T14:08:14.221Z,11.10
2023-01-13T14:10:45.564Z,11.10
2023-01-13T14:13:22.971Z,11.10
2023-01-13T14:15:57.501Z,11.10
2023-01-13T14:20:59.390Z,11.10
2023-01-13T14:23:31.335Z,11.10
2023-01-13T14:26:07.839Z,11.10
2023-01-13T14:28:42.091Z,11.10
2023-01-13T14:31:11.775Z,11.10
2023-01-13T14:33:43.877Z,11.10
2023-01-13T14:36:18.560Z,11.10
2023-01-13T14:38:50.757Z,11.20
2023-01-13T14:41:26.610Z,11.20
2023-01-13T14:43:59.258Z,11.20
2023-01-13T14:46:38.966Z,11.20
2023-01-13T14:51:45.997Z,11.00
2023-01-13T14:54:47.827Z,11.00
2023-01-13T14:57:27.376Z,10.90
2023-01-13T15:00:08.251Z,10.80
2023-01-13T15:02:46.151Z,10.70
2023-01-13T15:05:47.281Z,10.50
2023-01-13T15:08:37.875Z,10.40
2023-01-13T15:11:19.212Z,10.20
2023-01-13T15:13:54.770Z,10.30
2023-01-13T15:16:25.906Z,10.20
2023-01-13T15:18:55.024Z,10.00
2023-01-13T15:21:24.073Z,9.90
2023-01-13T15:23:52.800Z,9.80
2023-01-13T15:26:26.487Z,9.60
2023-01-13T15:28:56.743Z,9.40
2023-01-13T15:31:26.866Z,9.40
2023-01-13T15:33:55.889Z,9.20
2023-01-13T15:36:28.121Z,9.20
2023-01-13T15:38:57.199Z,9.10
2023-01-13T15:41:44.899Z,9.00
2023-01-13T15:44:32.589Z,9.00
2023-01-13T15:47:06.123Z,9.00
2023-01-13T15:49:38.594Z,9.00
2023-01-13T15:52:21.327Z,9.00
2023-01-13T15:54:49.846Z,9.10
2023-01-13T15:57:24.777Z,9.10
2023-01-13T15:59:57.109Z,9.20
2023-01-13T16:02:25.603Z,9.20
2023-01-13T16:04:54.811Z,9.20
2023-01-13T16:07:26.000Z,9.20
2023-01-13T16:09:54.516Z,9.20
2023-01-13T16:12:24.138Z,9.20
2023-01-13T16:17:24.873Z,9.30
2023-01-13T16:19:53.458Z,9.30
2023-01-13T16:22:21.988Z,9.30
2023-01-13T16:24:50.322Z,9.30
2023-01-13T16:27:21.698Z,9.30
2023-01-13T16:29:52.561Z,9.30
2023-01-13T16:37:22.785Z,9.30
2023-01-13T16:42:20.793Z,9.10
2023-01-13T16:44:49.720Z,9.20
2023-01-13T16:47:20.183Z,9.10
2023-01-13T16:49:48.512Z,9.00
2023-01-13T16:52:16.729Z,9.00
2023-01-13T16:54:45.023Z,8.90
2023-01-13T16:57:15.862Z,8.80
2023-01-13T17:02:15.611Z,8.90
2023-01-13T17:04:45.325Z,8.80
2023-01-13T17:07:17.754Z,8.80
2023-01-13T17:12:14.672Z,8.80
2023-01-13T17:17:23.427Z,8.70
2023-01-13T17:19:54.653Z,8.70
2023-01-13T17:22:24.207Z,8.70
2023-01-13T17:24:52.552Z,8.70
2023-01-13T17:29:49.875Z,8.70
2023-01-13T17:32:18.914Z,8.60
2023-01-13T17:37:18.161Z,8.50
2023-01-13T17:39:48.326Z,8.50
2023-01-13T17:42:16.862Z,8.50
2023-01-13T17:44:45.185Z,8.50
2023-01-13T17:47:13.529Z,8.40
2023-01-13T17:49:41.760Z,8.40
2023-01-13T17:54:42.955Z,8.40
2023-01-13T17:57:11.541Z,8.30
2023-01-13T18:02:13.357Z,8.40
2023-01-13T18:04:42.420Z,8.40
2023-01-13T18:07:10.645Z,8.40
2023-01-13T18:09:40.296Z,8.40
2023-01-13T18:12:08.614Z,8.40
2023-01-13T18:14:36.877Z,8.40
2023-01-13T18:17:05.264Z,8.40
2023-01-13T18:19:53.422Z,8.40
2023-01-13T18:25:30.599Z,8.40
2023-01-13T18:27:59.499Z,8.40
2023-01-13T18:30:27.719Z,8.40
2023-01-13T18:32:56.443Z,8.30
2023-01-13T18:35:24.959Z,8.30
2023-01-13T18:37:53.258Z,8.30
2023-01-13T18:40:23.091Z,8.30
2023-01-13T18:42:54.682Z,8.30
2023-01-13T18:45:26.228Z,8.30
2023-01-13T18:47:56.750Z,8.40
2023-01-13T18:50:25.836Z,8.40
2023-01-13T18:52:54.175Z,8.40
2023-01-13T18:55:23.908Z,8.40
2023-01-13T18:57:53.077Z,8.40
2023-01-13T19:00:24.582Z,8.40
2023-01-13T19:05:36.292Z,8.30
2023-01-13T19:08:05.129Z,8.30
2023-01-13T19:10:34.775Z,8.20
2023-01-13T19:13:03.172Z,8.20
2023-01-13T19:15:31.660Z,8.20
2023-01-13T19:20:28.610Z,8.10
2023-01-13T19:22:56.873Z,8.20
2023-01-13T19:25:25.112Z,8.10
2023-01-13T19:27:54.728Z,8.10
2023-01-13T19:30:22.960Z,8.10
2023-01-13T19:32:51.221Z,8.00
2023-01-13T19:35:20.041Z,8.00
2023-01-13T19:37:48.321Z,8.00
2023-01-13T19:40:17.254Z,8.00
2023-01-13T19:43:03.358Z,7.90
2023-01-13T19:45:35.269Z,8.00
2023-01-13T19:48:05.477Z,8.00
2023-01-13T19:50:38.397Z,7.90
2023-01-13T19:58:04.418Z,7.90
2023-01-13T20:00:34.854Z,7.90
2023-01-13T20:03:07.963Z,7.90
2023-01-13T20:05:36.357Z,7.90
2023-01-13T20:10:33.207Z,8.00
2023-01-13T20:13:02.392Z,8.00
2023-01-13T20:15:31.080Z,7.70
2023-01-13T20:18:00.799Z,8.10
2023-01-13T20:20:29.112Z,8.10
2023-01-13T20:22:58.125Z,8.20
2023-01-13T20:25:28.529Z,8.10
2023-01-13T20:27:58.513Z,8.10
2023-01-13T20:35:29.919Z,8.30
2023-01-13T20:37:58.333Z,8.20
2023-01-13T20:40:26.607Z,8.20
2023-01-13T20:42:54.655Z,8.20
2023-01-13T20:45:23.348Z,8.20
2023-01-13T20:50:20.545Z,8.30
2023-01-13T20:52:52.467Z,8.20
2023-01-13T20:55:20.800Z,8.20
2023-01-13T20:57:50.323Z,8.20
2023-01-13T21:00:20.271Z,8.20
2023-01-13T21:07:45.991Z,8.10
2023-01-13T21:10:15.774Z,8.10
2023-01-13T21:18:16.284Z,8.00
2023-01-13T21:20:44.555Z,8.00
2023-01-13T21:23:12.835Z,8.00
2023-01-13T21:25:43.247Z,7.90
2023-01-13T21:30:41.941Z,7.80
2023-01-13T21:33:14.685Z,7.80
2023-01-13T21:38:13.533Z,7.70
2023-01-13T21:40:43.176Z,7.60
2023-01-13T21:43:31.148Z,7.60
2023-01-13T21:46:31.805Z,7.60
2023-01-13T21:51:29.330Z,7.60
2023-01-13T21:53:58.567Z,7.60
2023-01-13T21:56:28.439Z,7.60
2023-01-13T22:01:25.492Z,7.90
2023-01-13T22:11:40.412Z,7.70
2023-01-13T22:16:41.751Z,7.70
2023-01-13T22:19:11.380Z,7.70
2023-01-13T22:21:40.131Z,7.70
2023-01-13T22:24:08.968Z,7.70
2023-01-13T22:26:37.184Z,7.50
2023-01-13T22:29:06.790Z,7.60
2023-01-13T22:31:35.144Z,7.50
2023-01-13T22:34:03.436Z,7.50
2023-01-13T22:41:29.576Z,7.60
2023-01-13T22:43:57.816Z,7.60
2023-01-13T22:46:27.449Z,7.60
2023-01-13T22:53:55.136Z,7.60
2023-01-13T22:56:25.640Z,7.60
2023-01-13T22:58:58.103Z,7.70
2023-01-13T23:01:30.020Z,7.60
2023-01-13T23:03:58.700Z,7.70
2023-01-13T23:06:29.480Z,7.70
2023-01-13T23:08:57.825Z,7.70
2023-01-13T23:11:29.244Z,7.70
2023-01-13T23:14:02.428Z,7.70
2023-01-13T23:16:34.958Z,7.70
2023-01-13T23:21:36.033Z,7.80
2023-01-13T23:24:05.698Z,7.80
2023-01-13T23:26:35.414Z,7.70
2023-01-13T23:29:06.834Z,7.70
2023-01-13T23:31:36.862Z,7.70
2023-01-13T23:34:05.096Z,7.70
2023-01-13T23:36:33.498Z,7.70
2023-01-13T23:44:01.356Z,7.70
2023-01-13T23:46:32.627Z,7.70
2023-01-13T23:49:03.599Z,7.70
2023-01-13T23:51:32.528Z,7.70
2023-01-13T23:56:32.253Z,7.70
